Time;durP1;ratioP1;P1;durP2;ratioP2;P2;SDS_P1;SDS_P2;PMS_P1;PMS_P2;Temp;Humidity;BMP_temperature;BMP_pressure;BME280_temperature;BME280_humidity;BME280_pressure;Samples;Min_cycle;Max_cycle;Signal;HPM_P1;HPM_P2
2022/09/30 00:01:44;;;;;;;8.40;7.07;;;5.70;99.90;;;;;;5042229;28;20514;-49
2022/09/30 00:04:14;;;;;;;7.03;6.30;;;5.70;99.90;;;;;;5047755;28;20490;-49
2022/09/30 00:06:41;;;;;;;7.10;6.50;;;5.60;99.90;;;;;;5039966;28;20485;-49
2022/09/30 00:09:10;;;;;;;7.60;6.80;;;5.50;99.90;;;;;;5046105;28;20522;-50
2022/09/30 00:11:37;;;;;;;12.43;6.67;;;5.60;99.90;;;;;;5039913;28;20483;-49
2022/09/30 00:14:04;;;;;;;7.10;6.03;;;5.50;99.90;;;;;;5038247;28;20549;-49
2022/09/30 00:16:35;;;;;;;8.40;6.53;;;5.50;99.90;;;;;;5038352;28;20501;-49
2022/09/30 00:19:04;;;;;;;10.37;6.70;;;5.50;99.90;;;;;;5055564;28;20501;-49
2022/09/30 00:21:31;;;;;;;7.90;5.90;;;5.50;99.90;;;;;;5052521;28;20485;-49
2022/09/30 00:23:58;;;;;;;8.00;6.47;;;5.50;99.90;;;;;;5042336;28;20515;-49
2022/09/30 00:26:24;;;;;;;11.23;6.97;;;5.50;99.90;;;;;;5042036;28;20576;-48
2022/09/30 00:28:53;;;;;;;7.23;6.53;;;5.40;99.90;;;;;;5038299;28;20531;-49
2022/09/30 00:31:21;;;;;;;9.83;6.37;;;5.30;99.90;;;;;;5045680;28;20504;-49
2022/09/30 00:34:05;;;;;;;9.10;6.77;;;5.30;99.90;;;;;;5044323;28;20497;-49
2022/09/30 00:36:32;;;;;;;6.53;6.00;;;5.30;99.90;;;;;;5042503;28;20466;-48
2022/09/30 00:38:59;;;;;;;8.93;6.30;;;5.30;99.90;;;;;;5043969;28;20468;-49
2022/09/30 00:41:26;;;;;;;8.33;5.90;;;5.30;99.90;;;;;;5040540;28;20504;-49
2022/09/30 00:43:53;;;;;;;7.77;7.03;;;5.20;99.90;;;;;;5043781;28;20450;-48
2022/09/30 00:46:25;;;;;;;6.87;6.27;;;5.30;99.90;;;;;;5035890;28;20458;-48
2022/09/30 00:48:55;;;;;;;7.43;6.67;;;5.30;99.90;;;;;;5044011;28;20983;-49
2022/09/30 00:51:28;;;;;;;9.13;6.77;;;5.30;99.90;;;;;;5044685;28;20478;-49
2022/09/30 00:53:57;;;;;;;7.03;6.43;;;5.30;99.90;;;;;;5038130;28;20495;-48
2022/09/30 00:56:26;;;;;;;6.57;5.97;;;5.20;99.90;;;;;;5034749;28;20967;-48
2022/09/30 00:58:56;;;;;;;7.57;6.50;;;5.20;99.90;;;;;;5043008;28;20524;-48
2022/09/30 01:01:23;;;;;;;7.00;6.30;;;5.20;99.90;;;;;;5035944;28;20541;-48
2022/09/30 01:03:54;;;;;;;6.43;5.80;;;5.20;99.90;;;;;;5032242;28;20915;-49
2022/09/30 01:06:22;;;;;;;7.30;6.60;;;5.10;99.90;;;;;;5035103;28;20496;-49
2022/09/30 01:08:49;;;;;;;6.77;6.10;;;5.10;99.90;;;;;;5035640;28;20505;-49
2022/09/30 01:11:16;;;;;;;7.17;5.60;;;5.10;99.90;;;;;;5035923;28;20502;-48
2022/09/30 01:13:46;;;;;;;6.80;6.20;;;5.10;99.90;;;;;;5039194;28;20493;-49
2022/09/30 01:16:37;;;;;;;11.67;7.07;;;5.10;99.90;;;;;;5041640;28;20514;-49
2022/09/30 01:19:25;;;;;;;7.70;5.53;;;5.10;99.90;;;;;;5028796;28;20485;-48
2022/09/30 01:22:19;;;;;;;7.53;6.27;;;4.90;99.90;;;;;;5038181;28;21002;-49
2022/09/30 01:25:25;;;;;;;7.53;6.30;;;4.90;99.90;;;;;;5040870;28;20505;-48
2022/09/30 01:28:30;;;;;;;6.63;5.97;;;4.90;99.90;;;;;;5028286;28;20453;-48
2022/09/30 01:31:11;;;;;;;7.20;6.00;;;4.90;99.90;;;;;;5021957;28;21015;-48
2022/09/30 01:33:47;;;;;;;7.20;5.83;;;4.90;99.90;;;;;;5043408;28;20486;-48
2022/09/30 01:36:26;;;;;;;7.03;6.30;;;4.90;99.90;;;;;;5042271;28;20515;-48
2022/09/30 01:39:03;;;;;;;6.13;5.63;;;4.90;99.90;;;;;;5049102;28;20499;-49
2022/09/30 01:41:41;;;;;;;6.93;5.77;;;4.90;99.90;;;;;;5034396;28;22461;-49
2022/09/30 01:44:14;;;;;;;7.30;6.50;;;4.90;99.90;;;;;;5046067;28;20484;-48
2022/09/30 01:46:46;;;;;;;7.33;6.63;;;4.80;99.90;;;;;;5054028;28;20495;-49
2022/09/30 01:49:19;;;;;;;5.67;5.10;;;4.90;99.90;;;;;;5047073;28;20896;-48
2022/09/30 01:51:53;;;;;;;6.83;6.17;;;4.80;99.90;;;;;;5048034;28;20841;-49
2022/09/30 01:54:27;;;;;;;9.50;6.40;;;4.80;99.90;;;;;;5056084;28;20452;-48
2022/09/30 01:56:59;;;;;;;8.40;6.10;;;4.80;99.90;;;;;;5055080;28;20486;-48
2022/09/30 01:59:31;;;;;;;8.47;5.90;;;4.80;99.90;;;;;;5036009;28;20505;-48
2022/09/30 02:02:05;;;;;;;11.23;6.93;;;4.80;99.90;;;;;;5042017;28;20493;-48
2022/09/30 02:04:36;;;;;;;5.93;5.33;;;4.80;99.90;;;;;;5056240;28;20544;-49
2022/09/30 02:07:08;;;;;;;9.80;6.50;;;4.80;99.90;;;;;;5038456;28;20466;-48
2022/09/30 02:09:40;;;;;;;6.43;5.70;;;4.90;99.90;;;;;;5052365;28;20544;-49
2022/09/30 02:12:12;;;;;;;7.60;6.40;;;4.80;99.90;;;;;;5043312;28;20585;-48
2022/09/30 02:14:42;;;;;;;5.83;5.43;;;4.90;99.90;;;;;;5050207;28;20493;-48
2022/09/30 02:17:15;;;;;;;7.37;6.20;;;4.90;99.90;;;;;;5044621;28;21054;-49
2022/09/30 02:19:45;;;;;;;8.00;6.63;;;5.00;99.90;;;;;;5052055;28;20468;-49
2022/09/30 02:22:16;;;;;;;8.00;6.30;;;4.90;99.90;;;;;;5045536;28;20482;-48
2022/09/30 02:24:44;;;;;;;6.63;6.03;;;4.90;99.90;;;;;;5042153;28;21094;-49
2022/09/30 02:27:17;;;;;;;11.47;6.37;;;4.90;99.90;;;;;;5041467;28;21227;-49
2022/09/30 02:29:48;;;;;;;7.27;6.53;;;4.90;99.90;;;;;;5048866;28;20536;-50
2022/09/30 02:32:20;;;;;;;6.23;5.70;;;4.90;99.90;;;;;;5042681;28;20482;-49
2022/09/30 02:34:52;;;;;;;8.53;7.30;;;4.90;99.90;;;;;;5041608;28;20557;-48
2022/09/30 02:37:24;;;;;;;9.87;7.87;;;4.80;99.90;;;;;;5035965;28;20556;-48
2022/09/30 02:39:57;;;;;;;9.03;8.13;;;4.80;99.90;;;;;;5045917;28;20590;-49
2022/09/30 02:42:27;;;;;;;11.33;8.93;;;4.70;99.90;;;;;;5041643;28;20516;-48
2022/09/30 02:44:56;;;;;;;9.50;8.60;;;4.70;99.90;;;;;;5045029;28;20459;-48
2022/09/30 02:47:31;;;;;;;9.03;6.80;;;4.70;99.90;;;;;;5038935;28;20548;-48
2022/09/30 02:50:03;;;;;;;6.27;5.67;;;4.80;99.90;;;;;;5042685;28;20457;-48
2022/09/30 02:52:40;;;;;;;6.30;5.70;;;4.80;99.90;;;;;;5047317;28;20532;-48
2022/09/30 02:55:17;;;;;;;6.83;6.03;;;4.70;99.90;;;;;;5044222;28;20545;-48
2022/09/30 02:57:54;;;;;;;6.60;5.80;;;4.70;99.90;;;;;;5039697;28;20541;-49
2022/09/30 03:00:21;;;;;;;5.40;5.00;;;4.70;99.90;;;;;;5030639;28;20572;-48
2022/09/30 03:02:51;;;;;;;7.07;5.40;;;4.70;99.90;;;;;;5048024;28;20520;-48
2022/09/30 03:05:18;;;;;;;8.60;4.77;;;4.70;99.90;;;;;;5050782;28;20556;-48
2022/09/30 03:07:44;;;;;;;6.23;5.70;;;4.70;99.90;;;;;;5040589;28;20545;-48
2022/09/30 03:10:15;;;;;;;5.90;5.40;;;4.70;99.90;;;;;;5039925;28;20496;-49
2022/09/30 03:12:59;;;;;;;9.50;5.87;;;4.70;99.90;;;;;;5043943;28;20545;-48
2022/09/30 03:15:39;;;;;;;6.40;5.80;;;4.70;99.90;;;;;;5041564;28;20493;-48
2022/09/30 03:18:28;;;;;;;6.67;6.07;;;4.70;99.90;;;;;;5042682;28;20524;-49
2022/09/30 03:21:08;;;;;;;6.53;5.50;;;4.70;99.90;;;;;;5040364;28;20564;-48
2022/09/30 03:24:22;;;;;;;5.80;5.30;;;4.60;99.90;;;;;;5037714;28;21229;-48
2022/09/30 03:26:57;;;;;;;5.60;5.20;;;4.60;99.90;;;;;;5028172;28;20484;-48
2022/09/30 03:29:32;;;;;;;15.23;5.50;;;4.60;99.90;;;;;;5043801;28;20549;-47
2022/09/30 03:32:10;;;;;;;10.73;6.10;;;4.70;99.90;;;;;;5041230;28;20589;-47
2022/09/30 03:34:51;;;;;;;6.03;5.60;;;4.70;99.90;;;;;;5044204;28;20578;-48
2022/09/30 03:37:27;;;;;;;5.83;5.23;;;4.60;99.90;;;;;;5048370;28;20545;-48
2022/09/30 03:39:57;;;;;;;6.43;5.83;;;4.70;99.90;;;;;;5041964;28;20573;-48
2022/09/30 03:42:28;;;;;;;5.40;4.93;;;4.70;99.90;;;;;;5039976;28;21087;-49
2022/09/30 03:45:03;;;;;;;5.83;5.10;;;4.60;99.90;;;;;;5046739;28;20458;-48
2022/09/30 03:47:33;;;;;;;8.00;5.50;;;4.60;99.90;;;;;;5038785;28;20453;-48
2022/09/30 03:50:06;;;;;;;5.70;5.20;;;4.70;99.90;;;;;;5037292;28;20462;-48
2022/09/30 03:52:35;;;;;;;5.50;5.10;;;4.60;99.90;;;;;;5054755;28;20545;-47
2022/09/30 03:55:03;;;;;;;6.27;5.67;;;4.70;99.90;;;;;;5042440;28;20557;-49
2022/09/30 03:57:30;;;;;;;12.23;5.47;;;4.70;99.90;;;;;;5041531;28;21276;-48
2022/09/30 03:59:57;;;;;;;5.17;4.77;;;4.70;99.90;;;;;;5044045;28;20498;-48
2022/09/30 04:02:24;;;;;;;6.57;5.97;;;4.70;99.90;;;;;;5050377;28;20616;-47
2022/09/30 04:04:51;;;;;;;6.97;5.50;;;4.70;99.90;;;;;;5047057;28;20469;-48
2022/09/30 04:07:19;;;;;;;5.97;5.37;;;4.70;99.90;;;;;;5036504;28;20913;-47
2022/09/30 04:09:46;;;;;;;6.13;5.53;;;4.70;99.90;;;;;;5038481;28;20549;-48
2022/09/30 04:12:12;;;;;;;5.87;5.37;;;4.70;99.90;;;;;;5045335;28;20569;-48
2022/09/30 04:14:39;;;;;;;11.87;6.37;;;4.60;99.90;;;;;;5045498;28;20553;-47
2022/09/30 04:17:05;;;;;;;5.90;5.40;;;4.60;99.90;;;;;;5042023;28;20524;-48
2022/09/30 04:19:36;;;;;;;6.63;5.43;;;4.60;99.90;;;;;;5046021;28;20482;-48
2022/09/30 04:22:03;;;;;;;6.30;5.80;;;4.60;99.90;;;;;;5035545;28;20487;-47
2022/09/30 04:24:31;;;;;;;6.33;5.77;;;4.60;99.90;;;;;;5036074;28;20542;-48
2022/09/30 04:26:58;;;;;;;5.47;5.00;;;4.60;99.90;;;;;;5046361;28;20557;-50
2022/09/30 04:29:24;;;;;;;6.23;5.70;;;4.60;99.90;;;;;;5041620;28;20543;-52
2022/09/30 04:31:51;;;;;;;6.30;5.33;;;4.60;99.90;;;;;;5034915;28;20486;-50
2022/09/30 04:34:18;;;;;;;6.50;5.87;;;4.60;99.90;;;;;;5036050;28;20967;-51
2022/09/30 04:36:44;;;;;;;5.63;5.13;;;4.60;99.90;;;;;;5028601;28;20553;-51
2022/09/30 04:39:11;;;;;;;6.13;4.90;;;4.60;99.90;;;;;;5038614;28;20550;-50
2022/09/30 04:41:39;;;;;;;7.87;5.63;;;4.60;99.90;;;;;;5032805;28;20565;-50
2022/09/30 04:44:06;;;;;;;5.60;5.20;;;4.60;99.90;;;;;;5026100;28;20466;-51
2022/09/30 04:46:35;;;;;;;6.13;5.53;;;4.60;99.90;;;;;;5033922;28;20541;-50
2022/09/30 04:49:02;;;;;;;5.87;5.40;;;4.60;99.90;;;;;;5031811;28;20829;-51
2022/09/30 04:51:29;;;;;;;7.47;5.87;;;4.60;99.90;;;;;;5029825;28;20573;-51
2022/09/30 04:53:56;;;;;;;7.13;6.43;;;4.60;99.90;;;;;;5035091;28;20473;-50
2022/09/30 04:56:24;;;;;;;10.03;5.70;;;4.60;99.90;;;;;;5063330;28;20916;-51
2022/09/30 04:58:53;;;;;;;6.23;5.67;;;4.50;99.90;;;;;;5042133;28;20458;-51
2022/09/30 05:01:21;;;;;;;7.23;6.27;;;4.50;99.90;;;;;;5030506;28;20509;-50
2022/09/30 05:03:47;;;;;;;7.17;5.70;;;4.50;99.90;;;;;;5034457;28;20478;-51
2022/09/30 05:06:14;;;;;;;6.93;5.70;;;4.50;99.90;;;;;;5044797;28;20466;-51
2022/09/30 05:08:42;;;;;;;6.07;5.43;;;4.50;99.90;;;;;;5028307;28;20463;-51
2022/09/30 05:11:13;;;;;;;5.03;4.67;;;4.50;99.90;;;;;;5038148;28;20500;-51
2022/09/30 05:13:40;;;;;;;5.60;5.10;;;4.50;99.90;;;;;;5049803;28;20499;-50
2022/09/30 05:16:09;;;;;;;7.23;6.60;;;4.60;99.90;;;;;;5036507;28;20468;-51
2022/09/30 05:18:35;;;;;;;6.77;6.07;;;4.70;99.90;;;;;;5036051;28;20558;-50
2022/09/30 05:21:03;;;;;;;5.83;5.33;;;4.60;99.90;;;;;;5029945;28;20582;-51
2022/09/30 05:23:31;;;;;;;7.73;6.93;;;4.70;99.90;;;;;;5057164;28;20571;-51
2022/09/30 05:25:59;;;;;;;8.10;7.27;;;4.70;99.90;;;;;;5036115;28;22265;-50
2022/09/30 05:28:25;;;;;;;7.73;7.07;;;4.80;99.90;;;;;;5039510;28;20467;-52
2022/09/30 05:30:56;;;;;;;8.20;7.40;;;4.80;99.90;;;;;;5039408;28;20489;-50
2022/09/30 05:33:24;;;;;;;7.43;6.33;;;4.80;99.90;;;;;;5041844;28;20537;-51
2022/09/30 05:35:51;;;;;;;9.67;8.03;;;4.80;99.90;;;;;;5038202;28;20548;-50
2022/09/30 05:38:18;;;;;;;10.13;6.47;;;4.80;99.90;;;;;;5048068;28;20567;-51
2022/09/30 05:40:44;;;;;;;9.73;8.30;;;4.80;99.90;;;;;;5038319;28;20965;-50
2022/09/30 05:43:11;;;;;;;9.40;8.10;;;4.90;99.90;;;;;;5045207;28;20568;-50
2022/09/30 05:45:38;;;;;;;9.50;7.57;;;4.80;99.90;;;;;;5030704;28;20548;-52
2022/09/30 05:48:05;;;;;;;8.50;6.63;;;4.90;99.90;;;;;;5045690;28;20458;-51
2022/09/30 05:50:33;;;;;;;6.53;5.93;;;4.90;99.90;;;;;;5037644;28;20478;-49
2022/09/30 05:53:00;;;;;;;7.23;6.53;;;5.00;99.90;;;;;;5047290;28;20519;-48
2022/09/30 05:55:27;;;;;;;9.20;6.67;;;5.00;99.90;;;;;;5056468;28;21027;-49
2022/09/30 05:57:53;;;;;;;9.00;6.63;;;5.00;99.90;;;;;;5038705;28;20546;-49
2022/09/30 06:00:20;;;;;;;7.50;6.90;;;5.00;99.90;;;;;;5038598;28;20577;-50
2022/09/30 06:02:51;;;;;;;7.30;6.70;;;5.00;99.90;;;;;;5039685;28;20566;-49
2022/09/30 06:05:18;;;;;;;7.07;6.37;;;5.10;99.90;;;;;;5043633;28;20549;-49
2022/09/30 06:07:46;;;;;;;7.40;6.53;;;5.10;99.90;;;;;;5036979;28;21067;-49
2022/09/30 06:10:13;;;;;;;10.27;6.50;;;5.10;99.90;;;;;;5029989;28;20577;-49
2022/09/30 06:12:39;;;;;;;6.67;6.13;;;5.20;99.90;;;;;;5046241;28;20545;-49
2022/09/30 06:15:07;;;;;;;6.70;6.10;;;5.30;99.90;;;;;;5032702;28;20580;-50
2022/09/30 06:17:34;;;;;;;8.13;7.37;;;5.30;99.90;;;;;;5030382;28;20875;-49
2022/09/30 06:20:01;;;;;;;7.13;5.80;;;5.40;99.90;;;;;;5031430;28;20856;-48
2022/09/30 06:22:28;;;;;;;6.40;5.90;;;5.40;99.90;;;;;;5039597;28;20495;-51
2022/09/30 06:24:56;;;;;;;8.53;7.17;;;5.50;99.90;;;;;;5034551;28;20552;-50
2022/09/30 06:27:22;;;;;;;7.63;6.57;;;5.60;99.90;;;;;;5043029;28;20554;-52
2022/09/30 06:29:49;;;;;;;9.10;8.00;;;5.70;99.90;;;;;;5031802;28;21046;-54
2022/09/30 06:32:16;;;;;;;7.03;6.33;;;5.80;99.90;;;;;;5050898;28;20568;-51
2022/09/30 06:34:42;;;;;;;12.03;9.90;;;5.90;99.90;;;;;;5052351;28;20535;-51
2022/09/30 06:37:10;;;;;;;11.20;10.10;;;5.90;99.90;;;;;;5050020;28;20450;-51
2022/09/30 06:39:36;;;;;;;19.30;11.30;;;6.00;99.90;;;;;;5053290;28;20465;-52
2022/09/30 06:42:04;;;;;;;15.90;13.93;;;6.10;99.90;;;;;;5047544;28;20568;-52
2022/09/30 06:44:31;;;;;;;18.97;12.00;;;6.20;99.90;;;;;;5054468;28;20491;-52
2022/09/30 06:46:58;;;;;;;16.00;13.63;;;6.30;99.90;;;;;;5044146;28;20556;-53
2022/09/30 06:49:25;;;;;;;14.63;12.20;;;6.40;99.90;;;;;;5047803;28;20461;-52
2022/09/30 06:51:52;;;;;;;13.23;11.20;;;6.60;99.90;;;;;;5042983;28;20511;-51
2022/09/30 06:54:19;;;;;;;12.80;11.20;;;6.70;1.40;;;;;;5045014;28;20872;-51
2022/09/30 06:56:47;;;;;;;9.70;8.40;;;6.80;99.90;;;;;;5045305;28;20548;-51
2022/09/30 06:59:15;;;;;;;10.03;9.00;;;6.90;99.90;;;;;;5044665;28;20494;-51
2022/09/30 07:01:43;;;;;;;10.33;9.13;;;7.10;99.90;;;;;;5039903;28;20490;-50
2022/09/30 07:04:10;;;;;;;10.90;8.90;;;7.20;99.90;;;;;;5039827;28;20479;-51
2022/09/30 07:06:37;;;;;;;11.90;9.50;;;7.40;99.90;;;;;;5037297;28;20455;-51
2022/09/30 07:09:04;;;;;;;10.20;8.83;;;7.50;99.90;;;;;;5040025;28;20484;-52
2022/09/30 07:11:31;;;;;;;12.37;8.60;;;7.70;99.90;;;;;;5042963;28;20570;-52
2022/09/30 07:13:57;;;;;;;12.80;9.30;;;7.70;99.90;;;;;;5045776;28;20546;-51
2022/09/30 07:16:25;;;;;;;12.70;9.13;;;7.80;99.90;;;;;;5035277;28;20473;-51
2022/09/30 07:18:53;;;;;;;9.57;8.03;;;8.00;99.90;;;;;;5038841;28;20524;-53
2022/09/30 07:21:19;;;;;;;9.40;8.47;;;8.10;99.90;;;;;;5045964;28;20482;-51
2022/09/30 07:23:47;;;;;;;10.43;8.57;;;8.20;99.90;;;;;;5043435;28;20509;-52
2022/09/30 07:26:15;;;;;;;12.73;8.70;;;8.30;99.90;;;;;;5036861;28;20535;-50
2022/09/30 07:28:42;;;;;;;8.87;7.73;;;8.40;99.90;;;;;;5042586;28;20462;-51
2022/09/30 07:31:11;;;;;;;10.63;8.87;;;8.60;99.90;;;;;;5038219;28;20562;-51
2022/09/30 07:33:39;;;;;;;9.73;8.40;;;8.70;99.90;;;;;;5042416;28;20462;-51
2022/09/30 07:36:07;;;;;;;8.80;7.73;;;8.80;99.90;;;;;;5035316;28;20462;-51
2022/09/30 07:38:36;;;;;;;14.47;8.60;;;9.00;99.90;;;;;;5031613;28;20462;-51
2022/09/30 07:41:06;;;;;;;10.17;9.07;;;9.10;99.90;;;;;;5036510;28;20488;-52
2022/09/30 07:43:37;;;;;;;12.67;9.63;;;9.20;99.90;;;;;;5039348;28;20486;-53
2022/09/30 07:46:06;;;;;;;16.77;8.90;;;9.30;99.90;;;;;;5043240;28;21566;-51
2022/09/30 07:51:22;;;;;;;12.17;8.50;;;9.50;99.90;;;;;;5029064;28;20475;-52
2022/09/30 07:53:51;;;;;;;13.67;11.60;;;9.70;99.90;;;;;;5032673;28;21091;-52
2022/09/30 07:56:18;;;;;;;10.43;8.90;;;9.80;99.90;;;;;;5041446;28;22517;-51
2022/09/30 07:58:45;;;;;;;14.37;8.90;;;9.90;28.40;;;;;;5034953;28;20493;-51
2022/09/30 08:01:12;;;;;;;9.67;8.00;;;10.10;40.30;;;;;;5038469;28;20633;-51
2022/09/30 08:03:40;;;;;;;9.60;7.80;;;10.20;52.00;;;;;;5035566;28;20478;-51
2022/09/30 08:06:09;;;;;;;9.77;8.77;;;10.40;67.30;;;;;;5032485;28;20462;-51
2022/09/30 08:08:37;;;;;;;11.73;9.27;;;10.50;81.50;;;;;;5036472;28;20470;-52
2022/09/30 08:11:06;;;;;;;11.33;9.30;;;10.70;95.50;;;;;;5034415;28;20514;-52
2022/09/30 08:13:33;;;;;;;10.33;9.23;;;10.80;99.90;;;;;;5031501;28;20546;-51
2022/09/30 08:15:59;;;;;;;11.30;9.40;;;10.90;99.90;;;;;;5036747;28;20466;-53
2022/09/30 08:18:27;;;;;;;12.13;9.90;;;11.00;99.90;;;;;;5036320;28;20557;-53
2022/09/30 08:20:54;;;;;;;10.90;9.77;;;11.10;99.90;;;;;;5034767;28;20482;-51
2022/09/30 08:23:21;;;;;;;10.83;9.73;;;11.20;99.90;;;;;;5035478;28;20577;-51
2022/09/30 08:25:49;;;;;;;14.20;9.73;;;11.30;99.90;;;;;;5026160;28;20471;-51
2022/09/30 08:28:17;;;;;;;12.20;10.23;;;11.50;99.90;;;;;;5028095;28;20568;-51
2022/09/30 08:30:44;;;;;;;10.70;9.60;;;11.60;99.90;;;;;;5032759;28;20574;-52
2022/09/30 08:33:10;;;;;;;11.07;9.90;;;11.60;99.90;;;;;;5036147;28;20547;-52
2022/09/30 08:35:37;;;;;;;9.77;8.77;;;11.80;99.90;;;;;;5032566;28;20901;-51
2022/09/30 08:38:03;;;;;;;18.07;10.17;;;11.80;99.90;;;;;;5033316;28;20481;-51
2022/09/30 08:40:33;;;;;;;11.60;10.37;;;12.00;99.90;;;;;;5039890;28;20564;-52
2022/09/30 08:43:16;;;;;;;10.33;9.30;;;12.10;99.90;;;;;;5045451;28;21050;-53
2022/09/30 08:45:52;;;;;;;14.63;11.00;;;12.30;99.90;;;;;;5038169;28;20544;-52
2022/09/30 08:48:29;;;;;;;13.73;9.67;;;12.50;99.90;;;;;;5046229;28;20481;-52
2022/09/30 08:51:06;;;;;;;9.77;8.77;;;12.50;99.90;;;;;;5034934;28;20589;-52
2022/09/30 08:53:36;;;;;;;12.70;10.10;;;12.70;99.90;;;;;;5032812;28;20537;-52
2022/09/30 08:56:04;;;;;;;11.83;8.77;;;12.90;99.90;;;;;;5036292;28;20968;-52
2022/09/30 08:58:35;;;;;;;10.60;9.50;;;13.20;99.90;;;;;;5038168;28;20550;-52
2022/09/30 09:01:10;;;;;;;11.43;7.63;;;13.30;99.90;;;;;;5034564;28;20513;-52
2022/09/30 09:03:36;;;;;;;12.30;9.20;;;13.30;26.30;;;;;;5027855;28;20535;-53
2022/09/30 09:06:18;;;;;;;8.40;7.60;;;13.30;20.00;;;;;;5043195;28;20566;-51
2022/09/30 09:08:58;;;;;;;10.73;9.00;;;13.40;99.90;;;;;;5032257;28;20945;-52
2022/09/30 09:11:40;;;;;;;9.60;8.47;;;13.50;83.10;;;;;;5035064;28;20578;-52
2022/09/30 09:14:20;;;;;;;17.53;8.23;;;13.80;26.30;;;;;;5031257;28;20564;-51
2022/09/30 09:16:58;;;;;;;12.13;8.13;;;14.00;29.90;;;;;;5028351;28;20552;-52
2022/09/30 09:19:29;;;;;;;10.23;8.53;;;13.90;44.60;;;;;;5031840;28;20612;-51
2022/09/30 09:22:00;;;;;;;9.00;8.10;;;14.20;38.30;;;;;;5025100;28;20492;-51
2022/09/30 09:24:29;;;;;;;11.70;8.10;;;14.40;45.90;;;;;;5026956;28;20592;-51
2022/09/30 09:26:58;;;;;;;13.80;9.80;;;14.50;62.30;;;;;;5027498;28;20458;-51
2022/09/30 09:29:43;;;;;;;9.67;8.33;;;14.60;69.00;;;;;;5032938;28;20466;-51
2022/09/30 09:32:13;;;;;;;11.17;7.93;;;14.60;69.90;;;;;;5031452;28;20518;-52
2022/09/30 09:34:41;;;;;;;11.20;9.00;;;14.50;72.60;;;;;;5035547;28;20445;-52
2022/09/30 09:37:17;;;;;;;10.77;9.40;;;14.60;74.40;;;;;;5027304;28;20580;-52
2022/09/30 09:40:08;;;;;;;11.77;8.97;;;14.60;83.10;;;;;;5036983;28;20457;-57
2022/09/30 09:42:47;;;;;;;11.10;8.13;;;14.60;82.50;;;;;;5035252;28;20572;-52
2022/09/30 09:45:24;;;;;;;10.30;7.53;;;14.70;79.00;;;;;;5037486;28;20513;-51
2022/09/30 09:47:51;;;;;;;15.90;8.23;;;14.80;83.60;;;;;;5034504;28;20549;-51
2022/09/30 09:50:23;;;;;;;11.27;8.87;;;14.90;83.20;;;;;;5035002;28;20455;-52
2022/09/30 09:53:00;;;;;;;8.93;8.07;;;14.80;99.00;;;;;;5029845;28;20549;-51
2022/09/30 09:55:27;;;;;;;10.80;9.13;;;14.90;90.20;;;;;;5035356;28;20545;-52
2022/09/30 09:58:09;;;;;;;7.87;7.07;;;15.00;89.60;;;;;;5033636;28;20558;-51
2022/09/30 10:03:22;;;;;;;9.57;8.00;;;15.40;99.90;;;;;;5037087;28;20446;-51
2022/09/30 10:06:00;;;;;;;11.50;7.63;;;15.30;99.90;;;;;;5040894;28;20508;-51
2022/09/30 10:08:27;;;;;;;9.40;7.50;;;15.10;99.90;;;;;;5034896;28;22410;-51
2022/09/30 10:10:57;;;;;;;9.30;8.40;;;15.20;99.90;;;;;;5042256;28;20644;-54
2022/09/30 10:13:26;;;;;;;7.33;6.63;;;15.30;99.90;;;;;;5040455;28;20534;-51
2022/09/30 10:15:55;;;;;;;10.63;8.50;;;15.30;99.90;;;;;;5039571;28;20553;-53
2022/09/30 10:18:26;;;;;;;9.47;8.00;;;15.10;99.90;;;;;;5038402;28;21032;-53
2022/09/30 10:20:57;;;;;;;6.73;6.13;;;15.10;99.90;;;;;;5043976;28;20594;-51
2022/09/30 10:23:28;;;;;;;13.40;7.70;;;15.10;99.90;;;;;;5036318;28;20532;-51
2022/09/30 10:26:02;;;;;;;6.33;5.77;;;15.20;99.90;;;;;;5039526;28;20554;-51
2022/09/30 10:28:31;;;;;;;8.73;5.20;;;15.20;99.90;;;;;;5043203;28;20461;-53
2022/09/30 10:31:05;;;;;;;5.40;4.90;;;15.20;99.90;;;;;;5042966;28;20585;-52
2022/09/30 10:33:40;;;;;;;6.00;5.50;;;15.30;99.90;;;;;;5042612;28;20529;-52
2022/09/30 10:36:14;;;;;;;6.03;5.20;;;15.20;99.90;;;;;;5046570;28;20489;-52
2022/09/30 10:38:56;;;;;;;5.20;4.70;;;15.20;99.90;;;;;;5037072;28;20523;-52
2022/09/30 10:41:25;;;;;;;4.90;4.40;;;15.30;99.90;;;;;;5034246;28;20568;-52
2022/09/30 10:43:54;;;;;;;5.90;4.47;;;15.30;99.90;;;;;;5028603;28;20869;-51
2022/09/30 10:46:28;;;;;;;10.03;4.43;;;15.30;99.90;;;;;;5029367;28;21211;-47
2022/09/30 10:48:57;;;;;;;6.93;4.20;;;15.20;99.90;;;;;;5034943;28;20492;-50
2022/09/30 10:51:28;;;;;;;21.80;5.10;;;15.20;99.90;;;;;;5032231;28;20513;-49
2022/09/30 10:53:55;;;;;;;4.53;4.10;;;15.20;99.90;;;;;;5025894;28;20535;-49
2022/09/30 10:56:34;;;;;;;11.90;4.43;;;15.10;99.90;;;;;;5034654;28;20572;-50
2022/09/30 10:59:02;;;;;;;5.27;4.27;;;15.20;99.90;;;;;;5045881;28;20453;-49
2022/09/30 11:01:35;;;;;;;7.70;4.50;;;15.10;99.90;;;;;;5041324;28;20518;-49
2022/09/30 11:04:06;;;;;;;5.60;4.10;;;15.10;99.90;;;;;;5032588;28;20937;-51
2022/09/30 11:06:36;;;;;;;8.30;4.67;;;15.10;99.90;;;;;;5039504;28;20943;-49
2022/09/30 11:09:08;;;;;;;9.67;4.00;;;15.10;99.90;;;;;;5054563;28;20505;-50
2022/09/30 11:11:39;;;;;;;10.30;2.97;;;15.20;99.90;;;;;;5032976;28;20895;-49
2022/09/30 11:14:21;;;;;;;3.87;3.30;;;15.20;99.90;;;;;;5039366;28;20494;-49
2022/09/30 11:16:59;;;;;;;2.90;2.60;;;15.30;99.90;;;;;;5034548;28;20467;-50
2022/09/30 11:19:31;;;;;;;7.67;2.97;;;15.30;99.90;;;;;;5041970;28;20493;-50
2022/09/30 11:22:04;;;;;;;3.03;2.50;;;15.50;99.90;;;;;;5037277;28;20991;-50
2022/09/30 11:24:38;;;;;;;14.23;2.33;;;15.50;99.90;;;;;;5047989;28;20547;-49
2022/09/30 11:27:11;;;;;;;6.53;3.00;;;15.60;99.90;;;;;;5043993;28;20461;-49
2022/09/30 11:30:01;;;;;;;2.37;2.23;;;15.60;99.90;;;;;;5041449;28;20537;-49
2022/09/30 11:32:47;;;;;;;3.20;2.90;;;15.50;99.90;;;;;;5055030;22;20517;-50
2022/09/30 11:35:27;;;;;;;2.20;2.10;;;15.50;99.90;;;;;;5008683;28;20541;-50
2022/09/30 11:38:14;;;;;;;2.50;2.30;;;15.60;99.90;;;;;;5007056;28;20916;-49
2022/09/30 11:40:49;;;;;;;2.60;2.40;;;15.60;99.90;;;;;;5002383;28;20475;-50
2022/09/30 11:43:28;;;;;;;2.53;2.13;;;15.70;99.90;;;;;;5011044;28;20574;-51
2022/09/30 11:46:11;;;;;;;3.57;2.50;;;15.80;99.90;;;;;;5011454;28;20483;-50
2022/09/30 11:48:57;;;;;;;2.13;1.90;;;15.80;99.90;;;;;;5009344;28;20952;-50
2022/09/30 11:51:32;;;;;;;3.40;2.67;;;15.70;99.90;;;;;;5005939;28;20546;-50
2022/09/30 11:54:08;;;;;;;2.40;2.20;;;15.70;99.90;;;;;;5002257;28;21151;-51
2022/09/30 11:56:45;;;;;;;2.07;1.63;;;15.80;99.90;;;;;;5001748;28;21271;-50
2022/09/30 11:59:18;;;;;;;1.83;1.73;;;15.80;99.90;;;;;;5006469;28;20542;-50
2022/09/30 12:01:48;;;;;;;2.30;2.00;;;15.80;99.90;;;;;;5008231;28;20469;-50
2022/09/30 12:04:22;;;;;;;1.80;1.70;;;15.80;99.90;;;;;;5009047;28;20498;-50
2022/09/30 12:06:53;;;;;;;3.10;1.97;;;15.80;99.90;;;;;;5002487;28;20476;-50
2022/09/30 12:09:24;;;;;;;1.90;1.80;;;15.90;99.90;;;;;;5007452;28;20467;-50
2022/09/30 12:11:56;;;;;;;2.03;1.80;;;15.90;99.90;;;;;;5001250;28;20554;-50
2022/09/30 12:14:28;;;;;;;2.03;1.40;;;16.10;99.90;;;;;;5006442;28;20582;-49
2022/09/30 12:16:56;;;;;;;9.53;3.33;;;16.00;99.90;;;;;;5006939;28;20495;-50
2022/09/30 12:19:29;;;;;;;3.27;2.57;;;16.00;99.90;;;;;;5009398;28;20546;-50
2022/09/30 12:22:01;;;;;;;4.43;2.90;;;16.00;99.90;;;;;;5009068;28;20547;-49
2022/09/30 12:24:34;;;;;;;4.17;2.30;;;15.90;99.90;;;;;;5006095;28;20570;-50
2022/09/30 12:27:03;;;;;;;4.17;2.23;;;15.80;99.90;;;;;;5001005;28;21293;-50
2022/09/30 12:32:57;;;;;;;2.00;1.90;;;16.00;99.90;;;;;;4997910;28;20451;-50
2022/09/30 12:35:42;;;;;;;2.33;1.97;;;16.20;99.90;;;;;;5010431;28;20452;-50
2022/09/30 12:38:24;;;;;;;1.87;1.70;;;16.30;99.90;;;;;;5002220;28;20471;-50
2022/09/30 12:41:01;;;;;;;5.03;2.00;;;16.40;99.90;;;;;;5008040;28;20462;-51
2022/09/30 12:43:54;;;;;;;1.93;1.60;;;16.70;99.90;;;;;;5008286;28;20493;-51
2022/09/30 12:46:29;;;;;;;3.53;2.20;;;16.70;99.90;;;;;;5006473;28;20563;-50
2022/09/30 12:49:00;;;;;;;2.63;2.23;;;16.60;99.90;;;;;;5010196;28;20495;-50
2022/09/30 12:51:31;;;;;;;4.33;2.10;;;16.70;99.90;;;;;;5003110;28;20553;-50
2022/09/30 12:54:03;;;;;;;1.70;1.60;;;16.80;99.90;;;;;;5004439;28;20578;-50
2022/09/30 12:56:32;;;;;;;2.70;1.90;;;16.90;99.90;;;;;;5006007;28;20471;-50
2022/09/30 12:58:59;;;;;;;2.10;1.90;;;16.90;99.90;;;;;;5006766;28;20972;-50
2022/09/30 13:01:28;;;;;;;3.70;1.87;;;16.80;99.90;;;;;;4996823;28;20463;-50
2022/09/30 13:04:16;;;;;;;3.37;1.90;;;16.90;99.90;;;;;;4994214;28;21040;-50
2022/09/30 13:07:08;;;;;;;6.73;2.23;;;17.00;99.90;;;;;;4997821;28;20467;-49
2022/09/30 13:09:36;;;;;;;2.57;1.40;;;17.10;99.90;;;;;;5001159;28;20464;-57
2022/09/30 13:12:24;;;;;;;5.30;2.10;;;17.50;99.90;;;;;;5003290;28;20495;-50
2022/09/30 13:15:38;;;;;;;2.20;2.00;;;17.40;99.90;;;;;;5000887;28;20546;-50
2022/09/30 13:18:39;;;;;;;1.70;1.60;;;17.10;99.90;;;;;;5003620;28;20539;-51
2022/09/30 13:21:24;;;;;;;1.60;1.50;;;16.60;99.90;;;;;;4978785;28;20548;-50
2022/09/30 13:23:54;;;;;;;1.70;1.60;;;16.40;99.90;;;;;;5001997;28;20479;-49